sensor_id;sensor_type;location;lat;lon;timestamp;temperature;humidity
10451;DHT22;5273;51.290;6.918;2023-03-26T00:01:24;8.70;99.90
10451;DHT22;5273;51.290;6.918;2023-03-26T00:03:52;8.70;99.90
10451;DHT22;5273;51.290;6.918;2023-03-26T00:06:23;8.60;99.90
10451;DHT22;5273;51.290;6.918;2023-03-26T00:08:51;8.60;99.90
10451;DHT22;5273;51.290;6.918;2023-03-26T00:11:20;8.60;99.90
10451;DHT22;5273;51.290;6.918;2023-03-26T00:13:48;8.60;99.90
10451;DHT22;5273;51.290;6.918;2023-03-26T00:18:46;8.60;99.90
10451;DHT22;5273;51.290;6.918;2023-03-26T00:21:15;8.60;99.90
10451;DHT22;5273;51.290;6.918;2023-03-26T00:28:38;8.60;99.90
10451;DHT22;5273;51.290;6.918;2023-03-26T00:31:08;8.60;99.90
10451;DHT22;5273;51.290;6.918;2023-03-26T00:36:05;8.60;99.90
10451;DHT22;5273;51.290;6.918;2023-03-26T00:41:04;8.60;99.90
10451;DHT22;5273;51.290;6.918;2023-03-26T00:43:32;8.60;99.90
10451;DHT22;5273;51.290;6.918;2023-03-26T00:48:28;8.50;99.90
10451;DHT22;5273;51.290;6.918;2023-03-26T01:00:51;8.60;99.90
10451;DHT22;5273;51.290;6.918;2023-03-26T01:05:52;8.50;99.90
10451;DHT22;5273;51.290;6.918;2023-03-26T01:08:26;8.50;99.90
10451;DHT22;5273;51.290;6.918;2023-03-26T01:10:54;8.30;99.90
10451;DHT22;5273;51.290;6.918;2023-03-26T01:13:29;8.50;99.90
10451;DHT22;5273;51.290;6.918;2023-03-26T01:15:57;8.50;99.90
10451;DHT22;5273;51.290;6.918;2023-03-26T01:18:29;8.50;99.90
10451;DHT22;5273;51.290;6.918;2023-03-26T01:21:00;8.50;99.90
10451;DHT22;5273;51.290;6.918;2023-03-26T01:23:38;8.50;99.90
10451;DHT22;5273;51.290;6.918;2023-03-26T01:26:14;8.50;99.90
10451;DHT22;5273;51.290;6.918;2023-03-26T01:31:16;8.50;99.90
10451;DHT22;5273;51.290;6.918;2023-03-26T01:33:49;8.50;99.90
10451;DHT22;5273;51.290;6.918;2023-03-26T01:36:22;8.50;99.90
10451;DHT22;5273;51.290;6.918;2023-03-26T01:38:56;8.60;99.90
10451;DHT22;5273;51.290;6.918;2023-03-26T01:41:31;8.50;99.90
10451;DHT22;5273;51.290;6.918;2023-03-26T01:44:03;8.60;99.90
10451;DHT22;5273;51.290;6.918;2023-03-26T01:46:33;7.30;99.90
10451;DHT22;5273;51.290;6.918;2023-03-26T01:49:02;8.50;99.90
10451;DHT22;5273;51.290;6.918;2023-03-26T01:51:30;8.50;99.90
10451;DHT22;5273;51.290;6.918;2023-03-26T01:53:58;8.60;99.90
10451;DHT22;5273;51.290;6.918;2023-03-26T01:56:33;8.50;99.90
10451;DHT22;5273;51.290;6.918;2023-03-26T02:02:08;8.60;99.90
10451;DHT22;5273;51.290;6.918;2023-03-26T02:04:41;8.60;99.90
10451;DHT22;5273;51.290;6.918;2023-03-26T02:07:15;10.00;99.90
10451;DHT22;5273;51.290;6.918;2023-03-26T02:09:47;8.60;99.90
10451;DHT22;5273;51.290;6.918;2023-03-26T02:12:17;8.70;99.90
10451;DHT22;5273;51.290;6.918;2023-03-26T02:29:33;8.80;99.90
10451;DHT22;5273;51.290;6.918;2023-03-26T02:46:47;8.30;99.90
10451;DHT22;5273;51.290;6.918;2023-03-26T02:56:36;8.80;99.90
10451;DHT22;5273;51.290;6.918;2023-03-26T03:04:00;8.50;99.90
10451;DHT22;5273;51.290;6.918;2023-03-26T03:13:51;8.30;99.90
10451;DHT22;5273;51.290;6.918;2023-03-26T03:21:20;8.30;99.90
10451;DHT22;5273;51.290;6.918;2023-03-26T03:26:16;8.20;99.90
10451;DHT22;5273;51.290;6.918;2023-03-26T03:36:08;8.10;99.90
10451;DHT22;5273;51.290;6.918;2023-03-26T03:38:38;8.10;99.90
10451;DHT22;5273;51.290;6.918;2023-03-26T03:41:06;8.10;99.90
10451;DHT22;5273;51.290;6.918;2023-03-26T03:50:55;8.00;99.90
10451;DHT22;5273;51.290;6.918;2023-03-26T03:53:23;8.00;99.90
10451;DHT22;5273;51.290;6.918;2023-03-26T03:55:52;7.90;99.90
10451;DHT22;5273;51.290;6.918;2023-03-26T03:58:20;7.90;99.90
10451;DHT22;5273;51.290;6.918;2023-03-26T04:05:42;7.80;99.90
10451;DHT22;5273;51.290;6.918;2023-03-26T04:08:14;7.80;99.90
10451;DHT22;5273;51.290;6.918;2023-03-26T04:10:42;7.80;99.90
10451;DHT22;5273;51.290;6.918;2023-03-26T04:13:10;7.80;99.90
10451;DHT22;5273;51.290;6.918;2023-03-26T04:25:30;7.90;99.90
10451;DHT22;5273;51.290;6.918;2023-03-26T04:30:27;8.00;99.90
10451;DHT22;5273;51.290;6.918;2023-03-26T04:35:30;7.90;99.90
10451;DHT22;5273;51.290;6.918;2023-03-26T04:45:24;8.30;99.90
10451;DHT22;5273;51.290;6.918;2023-03-26T04:47:52;8.10;99.90
10451;DHT22;5273;51.290;6.918;2023-03-26T04:55:20;8.20;99.90
10451;DHT22;5273;51.290;6.918;2023-03-26T04:57:51;8.10;99.90
10451;DHT22;5273;51.290;6.918;2023-03-26T05:05:16;8.00;99.90
10451;DHT22;5273;51.290;6.918;2023-03-26T05:10:11;7.80;99.90
10451;DHT22;5273;51.290;6.918;2023-03-26T05:15:07;7.90;99.90
10451;DHT22;5273;51.290;6.918;2023-03-26T05:20:07;7.80;99.90
10451;DHT22;5273;51.290;6.918;2023-03-26T05:22:39;7.70;99.90
10451;DHT22;5273;51.290;6.918;2023-03-26T05:25:07;7.80;99.90
10451;DHT22;5273;51.290;6.918;2023-03-26T05:30:01;7.80;99.90
10451;DHT22;5273;51.290;6.918;2023-03-26T05:32:29;7.90;99.90
10451;DHT22;5273;51.290;6.918;2023-03-26T05:39:53;8.00;99.90
10451;DHT22;5273;51.290;6.918;2023-03-26T05:54:40;8.00;99.90
10451;DHT22;5273;51.290;6.918;2023-03-26T05:57:08;8.00;99.90
10451;DHT22;5273;51.290;6.918;2023-03-26T06:14:20;8.00;99.90
10451;DHT22;5273;51.290;6.918;2023-03-26T06:31:31;8.00;99.90
10451;DHT22;5273;51.290;6.918;2023-03-26T06:46:14;8.00;99.90
10451;DHT22;5273;51.290;6.918;2023-03-26T06:48:42;8.00;99.90
10451;DHT22;5273;51.290;6.918;2023-03-26T07:05:53;8.00;99.90
10451;DHT22;5273;51.290;6.918;2023-03-26T07:20:36;8.00;99.90
10451;DHT22;5273;51.290;6.918;2023-03-26T07:23:05;8.00;99.90
10451;DHT22;5273;51.290;6.918;2023-03-26T07:25:32;8.10;99.90
10451;DHT22;5273;51.290;6.918;2023-03-26T07:28:06;8.00;99.90
10451;DHT22;5273;51.290;6.918;2023-03-26T07:30:45;8.00;99.90
10451;DHT22;5273;51.290;6.918;2023-03-26T07:33:23;8.00;99.90
10451;DHT22;5273;51.290;6.918;2023-03-26T07:36:02;8.00;99.90
10451;DHT22;5273;51.290;6.918;2023-03-26T07:38:45;8.00;99.90
10451;DHT22;5273;51.290;6.918;2023-03-26T07:41:17;8.00;99.90
10451;DHT22;5273;51.290;6.918;2023-03-26T07:43:58;8.10;99.90
10451;DHT22;5273;51.290;6.918;2023-03-26T07:46:30;8.10;99.90
10451;DHT22;5273;51.290;6.918;2023-03-26T07:51:26;8.50;99.90
10451;DHT22;5273;51.290;6.918;2023-03-26T07:53:55;8.20;99.90
10451;DHT22;5273;51.290;6.918;2023-03-26T07:56:28;8.20;99.90
10451;DHT22;5273;51.290;6.918;2023-03-26T07:59:18;8.40;99.90
10451;DHT22;5273;51.290;6.918;2023-03-26T08:02:00;8.40;99.90
10451;DHT22;5273;51.290;6.918;2023-03-26T08:05:03;8.40;99.90
10451;DHT22;5273;51.290;6.918;2023-03-26T08:07:41;8.50;99.90
10451;DHT22;5273;51.290;6.918;2023-03-26T08:10:17;8.60;99.90
10451;DHT22;5273;51.290;6.918;2023-03-26T08:12:51;8.30;99.90
10451;DHT22;5273;51.290;6.918;2023-03-26T08:15:24;8.50;99.90
10451;DHT22;5273;51.290;6.918;2023-03-26T08:18:00;8.60;99.90
10451;DHT22;5273;51.290;6.918;2023-03-26T08:20:36;8.30;99.90
10451;DHT22;5273;51.290;6.918;2023-03-26T08:23:10;8.60;99.90
10451;DHT22;5273;51.290;6.918;2023-03-26T08:25:49;8.60;99.90
10451;DHT22;5273;51.290;6.918;2023-03-26T08:28:38;8.60;99.90
10451;DHT22;5273;51.290;6.918;2023-03-26T08:31:10;8.60;99.90
10451;DHT22;5273;51.290;6.918;2023-03-26T08:36:06;8.60;99.90
10451;DHT22;5273;51.290;6.918;2023-03-26T08:41:43;8.30;99.90
10451;DHT22;5273;51.290;6.918;2023-03-26T08:51:02;8.50;99.90
10451;DHT22;5273;51.290;6.918;2023-03-26T08:56:50;8.60;99.90
10451;DHT22;5273;51.290;6.918;2023-03-26T08:59:47;8.60;99.90
10451;DHT22;5273;51.290;6.918;2023-03-26T09:14:47;8.40;99.90
10451;DHT22;5273;51.290;6.918;2023-03-26T09:20:52;8.20;99.90
10451;DHT22;5273;51.290;6.918;2023-03-26T09:23:47;8.10;99.90
10451;DHT22;5273;51.290;6.918;2023-03-26T09:26:24;8.10;99.90
10451;DHT22;5273;51.290;6.918;2023-03-26T09:32:30;7.90;99.90
10451;DHT22;5273;51.290;6.918;2023-03-26T09:35:12;7.90;99.90
10451;DHT22;5273;51.290;6.918;2023-03-26T09:37:55;7.80;99.90
10451;DHT22;5273;51.290;6.918;2023-03-26T09:40:31;7.80;99.90
10451;DHT22;5273;51.290;6.918;2023-03-26T09:43:18;7.80;99.90
10451;DHT22;5273;51.290;6.918;2023-03-26T09:45:58;7.80;99.90
10451;DHT22;5273;51.290;6.918;2023-03-26T09:51:37;7.80;99.90
10451;DHT22;5273;51.290;6.918;2023-03-26T09:57:17;7.50;99.90
10451;DHT22;5273;51.290;6.918;2023-03-26T10:00:03;7.30;99.90
10451;DHT22;5273;51.290;6.918;2023-03-26T10:02:44;7.20;99.90
10451;DHT22;5273;51.290;6.918;2023-03-26T10:05:40;7.00;99.90
10451;DHT22;5273;51.290;6.918;2023-03-26T10:08:24;7.00;99.90
10451;DHT22;5273;51.290;6.918;2023-03-26T10:10:55;7.00;99.90
10451;DHT22;5273;51.290;6.918;2023-03-26T10:13:31;7.00;99.90
10451;DHT22;5273;51.290;6.918;2023-03-26T10:16:07;7.00;99.90
10451;DHT22;5273;51.290;6.918;2023-03-26T10:18:48;7.00;99.90
10451;DHT22;5273;51.290;6.918;2023-03-26T10:21:27;7.00;99.90
10451;DHT22;5273;51.290;6.918;2023-03-26T10:24:22;6.90;99.90
10451;DHT22;5273;51.290;6.918;2023-03-26T10:27:06;6.90;99.90
10451;DHT22;5273;51.290;6.918;2023-03-26T10:29:50;6.90;99.90
10451;DHT22;5273;51.290;6.918;2023-03-26T10:32:28;7.00;99.90
10451;DHT22;5273;51.290;6.918;2023-03-26T10:35:07;7.00;99.90
10451;DHT22;5273;51.290;6.918;2023-03-26T10:37:46;6.90;99.90
10451;DHT22;5273;51.290;6.918;2023-03-26T10:40:20;6.90;99.90
10451;DHT22;5273;51.290;6.918;2023-03-26T10:43:25;6.80;99.90
10451;DHT22;5273;51.290;6.918;2023-03-26T10:46:22;6.90;99.90
10451;DHT22;5273;51.290;6.918;2023-03-26T10:49:14;6.90;99.90
10451;DHT22;5273;51.290;6.918;2023-03-26T10:51:47;7.00;99.90
10451;DHT22;5273;51.290;6.918;2023-03-26T10:54:25;7.00;99.90
10451;DHT22;5273;51.290;6.918;2023-03-26T10:56:54;7.00;99.90
10451;DHT22;5273;51.290;6.918;2023-03-26T11:01:58;8.50;99.90
10451;DHT22;5273;51.290;6.918;2023-03-26T11:04:36;7.20;99.90
10451;DHT22;5273;51.290;6.918;2023-03-26T11:07:12;7.20;99.90
10451;DHT22;5273;51.290;6.918;2023-03-26T11:09:50;7.20;99.90
10451;DHT22;5273;51.290;6.918;2023-03-26T11:12:24;7.20;99.90
10451;DHT22;5273;51.290;6.918;2023-03-26T11:14:57;7.20;99.90
10451;DHT22;5273;51.290;6.918;2023-03-26T11:17:36;7.40;99.90
10451;DHT22;5273;51.290;6.918;2023-03-26T11:20:10;7.40;99.90
10451;DHT22;5273;51.290;6.918;2023-03-26T11:22:51;7.40;99.90
10451;DHT22;5273;51.290;6.918;2023-03-26T11:25:32;7.40;99.90
10451;DHT22;5273;51.290;6.918;2023-03-26T11:28:12;7.50;99.90
10451;DHT22;5273;51.290;6.918;2023-03-26T11:30:47;7.50;99.90
10451;DHT22;5273;51.290;6.918;2023-03-26T11:33:19;7.50;99.90
10451;DHT22;5273;51.290;6.918;2023-03-26T11:35:48;7.50;99.90
10451;DHT22;5273;51.290;6.918;2023-03-26T11:38:20;7.60;99.90
10451;DHT22;5273;51.290;6.918;2023-03-26T11:40:53;7.70;99.90
10451;DHT22;5273;51.290;6.918;2023-03-26T11:43:23;7.70;99.90
10451;DHT22;5273;51.290;6.918;2023-03-26T11:48:22;7.70;99.90
10451;DHT22;5273;51.290;6.918;2023-03-26T11:50:55;7.70;99.90
10451;DHT22;5273;51.290;6.918;2023-03-26T11:53:27;7.70;99.90
10451;DHT22;5273;51.290;6.918;2023-03-26T11:55:59;7.70;99.90
10451;DHT22;5273;51.290;6.918;2023-03-26T11:58:31;7.90;99.90
10451;DHT22;5273;51.290;6.918;2023-03-26T12:01:03;7.90;99.90
10451;DHT22;5273;51.290;6.918;2023-03-26T12:03:31;7.70;99.90
10451;DHT22;5273;51.290;6.918;2023-03-26T12:05:59;8.00;99.90
10451;DHT22;5273;51.290;6.918;2023-03-26T12:08:33;8.00;99.90
10451;DHT22;5273;51.290;6.918;2023-03-26T12:11:06;7.90;99.90
10451;DHT22;5273;51.290;6.918;2023-03-26T12:13:38;7.90;99.90
10451;DHT22;5273;51.290;6.918;2023-03-26T12:16:10;8.00;99.90
10451;DHT22;5273;51.290;6.918;2023-03-26T12:18:38;8.00;99.90
10451;DHT22;5273;51.290;6.918;2023-03-26T12:21:10;8.00;99.90
10451;DHT22;5273;51.290;6.918;2023-03-26T12:23:56;8.00;99.90
10451;DHT22;5273;51.290;6.918;2023-03-26T12:26:40;8.00;99.90
10451;DHT22;5273;51.290;6.918;2023-03-26T12:29:11;8.00;99.90
10451;DHT22;5273;51.290;6.918;2023-03-26T12:31:47;8.00;99.90
10451;DHT22;5273;51.290;6.918;2023-03-26T12:34:16;8.10;99.90
10451;DHT22;5273;51.290;6.918;2023-03-26T12:36:51;8.10;99.90
10451;DHT22;5273;51.290;6.918;2023-03-26T12:39:30;8.20;99.90
10451;DHT22;5273;51.290;6.918;2023-03-26T12:42:00;8.30;99.90
10451;DHT22;5273;51.290;6.918;2023-03-26T12:44:29;8.20;99.90
10451;DHT22;5273;51.290;6.918;2023-03-26T12:47:14;8.50;99.90
10451;DHT22;5273;51.290;6.918;2023-03-26T12:52:33;8.90;99.90
10451;DHT22;5273;51.290;6.918;2023-03-26T12:55:12;8.70;99.90
10451;DHT22;5273;51.290;6.918;2023-03-26T12:57:50;8.90;99.90
10451;DHT22;5273;51.290;6.918;2023-03-26T13:00:27;9.00;99.90
10451;DHT22;5273;51.290;6.918;2023-03-26T13:03:15;9.20;99.90
10451;DHT22;5273;51.290;6.918;2023-03-26T13:05:56;9.20;99.90
10451;DHT22;5273;51.290;6.918;2023-03-26T13:11:37;9.60;99.90
10451;DHT22;5273;51.290;6.918;2023-03-26T13:14:19;9.60;99.90
10451;DHT22;5273;51.290;6.918;2023-03-26T13:16:51;9.60;99.90
10451;DHT22;5273;51.290;6.918;2023-03-26T13:19:25;9.60;99.90
10451;DHT22;5273;51.290;6.918;2023-03-26T13:22:03;9.70;99.90
10451;DHT22;5273;51.290;6.918;2023-03-26T13:24:41;9.70;99.90
10451;DHT22;5273;51.290;6.918;2023-03-26T13:27:30;9.70;99.90
10451;DHT22;5273;51.290;6.918;2023-03-26T13:30:11;9.80;99.90
10451;DHT22;5273;51.290;6.918;2023-03-26T13:32:47;10.00;99.90
10451;DHT22;5273;51.290;6.918;2023-03-26T13:35:26;10.20;99.90
10451;DHT22;5273;51.290;6.918;2023-03-26T13:37:58;10.60;99.90
10451;DHT22;5273;51.290;6.918;2023-03-26T13:40:35;10.30;99.90
10451;DHT22;5273;51.290;6.918;2023-03-26T13:43:24;11.80;99.90
10451;DHT22;5273;51.290;6.918;2023-03-26T13:46:00;11.90;99.90
10451;DHT22;5273;51.290;6.918;2023-03-26T13:48:34;10.40;99.90
10451;DHT22;5273;51.290;6.918;2023-03-26T13:51:08;10.40;99.90
10451;DHT22;5273;51.290;6.918;2023-03-26T13:53:42;10.50;99.90
10451;DHT22;5273;51.290;6.918;2023-03-26T13:56:13;10.60;99.90
10451;DHT22;5273;51.290;6.918;2023-03-26T13:58:45;10.80;99.90
10451;DHT22;5273;51.290;6.918;2023-03-26T14:01:18;10.80;99.90
10451;DHT22;5273;51.290;6.918;2023-03-26T14:03:51;10.80;99.90
10451;DHT22;5273;51.290;6.918;2023-03-26T14:06:31;10.60;99.90
10451;DHT22;5273;51.290;6.918;2023-03-26T14:09:03;10.90;99.90
10451;DHT22;5273;51.290;6.918;2023-03-26T14:11:41;11.00;99.90
10451;DHT22;5273;51.290;6.918;2023-03-26T14:14:13;11.00;99.90
10451;DHT22;5273;51.290;6.918;2023-03-26T14:16:49;11.00;99.90
10451;DHT22;5273;51.290;6.918;2023-03-26T14:19:36;11.30;99.90
10451;DHT22;5273;51.290;6.918;2023-03-26T14:22:14;11.10;99.90
10451;DHT22;5273;51.290;6.918;2023-03-26T14:24:57;11.20;99.90
10451;DHT22;5273;51.290;6.918;2023-03-26T14:27:48;11.10;99.90
10451;DHT22;5273;51.290;6.918;2023-03-26T14:33:43;11.00;99.90
10451;DHT22;5273;51.290;6.918;2023-03-26T14:36:23;10.90;99.90
10451;DHT22;5273;51.290;6.918;2023-03-26T14:38:59;10.80;99.90
10451;DHT22;5273;51.290;6.918;2023-03-26T14:41:38;10.80;99.90
10451;DHT22;5273;51.290;6.918;2023-03-26T14:47:12;10.70;99.90
10451;DHT22;5273;51.290;6.918;2023-03-26T14:49:53;10.80;99.90
10451;DHT22;5273;51.290;6.918;2023-03-26T14:52:36;10.80;99.90
10451;DHT22;5273;51.290;6.918;2023-03-26T14:55:12;10.90;99.90
10451;DHT22;5273;51.290;6.918;2023-03-26T14:58:13;10.90;99.90
10451;DHT22;5273;51.290;6.918;2023-03-26T15:01:20;10.70;99.90
10451;DHT22;5273;51.290;6.918;2023-03-26T15:10:38;10.50;99.90
10451;DHT22;5273;51.290;6.918;2023-03-26T15:13:47;10.60;99.90
10451;DHT22;5273;51.290;6.918;2023-03-26T15:16:41;10.70;99.90
10451;DHT22;5273;51.290;6.918;2023-03-26T15:19:42;10.50;99.90
10451;DHT22;5273;51.290;6.918;2023-03-26T15:22:34;10.50;99.90
10451;DHT22;5273;51.290;6.918;2023-03-26T15:31:10;10.20;99.90
10451;DHT22;5273;51.290;6.918;2023-03-26T15:37:38;10.10;99.90
10451;DHT22;5273;51.290;6.918;2023-03-26T15:40:28;10.10;99.90
10451;DHT22;5273;51.290;6.918;2023-03-26T15:43:05;10.70;99.90
10451;DHT22;5273;51.290;6.918;2023-03-26T15:45:35;10.10;99.90
10451;DHT22;5273;51.290;6.918;2023-03-26T15:48:23;10.20;99.90
10451;DHT22;5273;51.290;6.918;2023-03-26T15:51:02;10.70;99.90
10451;DHT22;5273;51.290;6.918;2023-03-26T15:53:41;10.10;99.90
10451;DHT22;5273;51.290;6.918;2023-03-26T15:56:22;10.10;99.90
10451;DHT22;5273;51.290;6.918;2023-03-26T15:58:55;9.90;99.90
10451;DHT22;5273;51.290;6.918;2023-03-26T16:01:34;10.10;99.90
10451;DHT22;5273;51.290;6.918;2023-03-26T16:04:12;10.00;99.90
10451;DHT22;5273;51.290;6.918;2023-03-26T16:06:49;9.80;99.90
10451;DHT22;5273;51.290;6.918;2023-03-26T16:09:53;10.00;99.90
10451;DHT22;5273;51.290;6.918;2023-03-26T16:12:31;10.20;99.90
10451;DHT22;5273;51.290;6.918;2023-03-26T16:18:24;9.90;99.90
10451;DHT22;5273;51.290;6.918;2023-03-26T16:20:53;9.80;99.90
10451;DHT22;5273;51.290;6.918;2023-03-26T16:23:26;9.70;99.90
10451;DHT22;5273;51.290;6.918;2023-03-26T16:26:14;9.80;99.90
10451;DHT22;5273;51.290;6.918;2023-03-26T16:29:16;9.70;99.90
10451;DHT22;5273;51.290;6.918;2023-03-26T16:32:03;9.70;99.90
10451;DHT22;5273;51.290;6.918;2023-03-26T16:34:39;9.60;99.90
10451;DHT22;5273;51.290;6.918;2023-03-26T16:37:38;9.40;99.90
10451;DHT22;5273;51.290;6.918;2023-03-26T16:40:28;9.50;99.90
10451;DHT22;5273;51.290;6.918;2023-03-26T16:43:08;9.50;99.90
10451;DHT22;5273;51.290;6.918;2023-03-26T16:45:43;9.40;99.90
10451;DHT22;5273;51.290;6.918;2023-03-26T16:48:21;8.90;99.90
10451;DHT22;5273;51.290;6.918;2023-03-26T16:50:52;9.00;99.90
10451;DHT22;5273;51.290;6.918;2023-03-26T16:53:25;9.20;99.90
10451;DHT22;5273;51.290;6.918;2023-03-26T16:55:58;9.20;99.90
10451;DHT22;5273;51.290;6.918;2023-03-26T16:58:36;9.10;99.90
10451;DHT22;5273;51.290;6.918;2023-03-26T17:01:07;9.20;99.90
10451;DHT22;5273;51.290;6.918;2023-03-26T17:03:50;8.90;99.90
10451;DHT22;5273;51.290;6.918;2023-03-26T17:06:29;8.90;99.90
10451;DHT22;5273;51.290;6.918;2023-03-26T17:09:05;8.90;99.90
10451;DHT22;5273;51.290;6.918;2023-03-26T17:11:49;8.80;99.90
10451;DHT22;5273;51.290;6.918;2023-03-26T17:14:44;8.80;99.90
10451;DHT22;5273;51.290;6.918;2023-03-26T17:17:27;8.70;99.90
10451;DHT22;5273;51.290;6.918;2023-03-26T17:20:01;8.70;99.90
10451;DHT22;5273;51.290;6.918;2023-03-26T17:22:38;8.40;99.90
10451;DHT22;5273;51.290;6.918;2023-03-26T17:25:18;8.60;99.90
10451;DHT22;5273;51.290;6.918;2023-03-26T17:27:51;8.60;99.90
10451;DHT22;5273;51.290;6.918;2023-03-26T17:30:45;8.50;99.90
10451;DHT22;5273;51.290;6.918;2023-03-26T17:33:21;8.50;99.90
10451;DHT22;5273;51.290;6.918;2023-03-26T17:36:18;8.50;99.90
10451;DHT22;5273;51.290;6.918;2023-03-26T17:38:59;8.50;99.90
10451;DHT22;5273;51.290;6.918;2023-03-26T17:41:49;8.50;99.90
10451;DHT22;5273;51.290;6.918;2023-03-26T17:44:35;8.50;99.90
10451;DHT22;5273;51.290;6.918;2023-03-26T17:47:10;8.40;99.90
10451;DHT22;5273;51.290;6.918;2023-03-26T17:52:16;8.40;99.90
10451;DHT22;5273;51.290;6.918;2023-03-26T17:54:46;8.40;99.90
10451;DHT22;5273;51.290;6.918;2023-03-26T17:57:17;8.40;99.90
10451;DHT22;5273;51.290;6.918;2023-03-26T17:59:48;8.40;99.90
10451;DHT22;5273;51.290;6.918;2023-03-26T18:02:19;8.40;99.90
10451;DHT22;5273;51.290;6.918;2023-03-26T18:04:50;8.30;99.90
10451;DHT22;5273;51.290;6.918;2023-03-26T18:07:43;8.30;99.90
10451;DHT22;5273;51.290;6.918;2023-03-26T18:10:28;8.30;99.90
10451;DHT22;5273;51.290;6.918;2023-03-26T18:16:04;8.30;99.90
10451;DHT22;5273;51.290;6.918;2023-03-26T18:18:41;8.30;99.90
10451;DHT22;5273;51.290;6.918;2023-03-26T18:21:14;8.20;99.90
10451;DHT22;5273;51.290;6.918;2023-03-26T18:23:45;8.20;99.90
10451;DHT22;5273;51.290;6.918;2023-03-26T18:26:15;8.20;99.90
10451;DHT22;5273;51.290;6.918;2023-03-26T18:28:44;8.20;99.90
10451;DHT22;5273;51.290;6.918;2023-03-26T18:31:17;8.20;99.90
10451;DHT22;5273;51.290;6.918;2023-03-26T18:33:47;8.10;99.90
10451;DHT22;5273;51.290;6.918;2023-03-26T18:36:15;8.20;99.90
10451;DHT22;5273;51.290;6.918;2023-03-26T18:38:44;8.20;99.90
10451;DHT22;5273;51.290;6.918;2023-03-26T18:41:19;8.20;99.90
10451;DHT22;5273;51.290;6.918;2023-03-26T18:48:42;8.00;99.90
10451;DHT22;5273;51.290;6.918;2023-03-26T18:51:11;7.90;99.90
10451;DHT22;5273;51.290;6.918;2023-03-26T18:53:45;7.90;99.90
10451;DHT22;5273;51.290;6.918;2023-03-26T18:56:19;7.80;99.90
10451;DHT22;5273;51.290;6.918;2023-03-26T18:58:55;7.70;99.90
10451;DHT22;5273;51.290;6.918;2023-03-26T19:01:24;7.70;99.90
10451;DHT22;5273;51.290;6.918;2023-03-26T19:03:56;7.70;99.90
10451;DHT22;5273;51.290;6.918;2023-03-26T19:06:25;7.70;99.90
10451;DHT22;5273;51.290;6.918;2023-03-26T19:08:53;7.60;99.90
10451;DHT22;5273;51.290;6.918;2023-03-26T19:11:21;7.60;99.90
10451;DHT22;5273;51.290;6.918;2023-03-26T19:13:58;7.60;99.90
10451;DHT22;5273;51.290;6.918;2023-03-26T19:16:29;7.50;99.90
10451;DHT22;5273;51.290;6.918;2023-03-26T19:18:58;7.50;99.90
10451;DHT22;5273;51.290;6.918;2023-03-26T19:21:27;7.50;99.90
10451;DHT22;5273;51.290;6.918;2023-03-26T19:23:55;7.50;99.90
10451;DHT22;5273;51.290;6.918;2023-03-26T19:28:51;7.50;99.90
10451;DHT22;5273;51.290;6.918;2023-03-26T19:31:22;7.50;99.90
10451;DHT22;5273;51.290;6.918;2023-03-26T19:33:53;7.40;99.90
10451;DHT22;5273;51.290;6.918;2023-03-26T19:36:24;7.40;99.90
10451;DHT22;5273;51.290;6.918;2023-03-26T19:39:03;7.40;99.90
10451;DHT22;5273;51.290;6.918;2023-03-26T19:41:37;7.40;99.90
10451;DHT22;5273;51.290;6.918;2023-03-26T19:44:17;7.40;99.90
10451;DHT22;5273;51.290;6.918;2023-03-26T19:46:46;7.40;99.90
10451;DHT22;5273;51.290;6.918;2023-03-26T19:49:25;7.40;99.90
10451;DHT22;5273;51.290;6.918;2023-03-26T19:54:21;7.40;99.90
10451;DHT22;5273;51.290;6.918;2023-03-26T20:04:10;7.20;99.90
10451;DHT22;5273;51.290;6.918;2023-03-26T20:11:37;7.00;99.90
10451;DHT22;5273;51.290;6.918;2023-03-26T20:14:12;7.00;99.90
10451;DHT22;5273;51.290;6.918;2023-03-26T20:24:09;6.90;99.90
10451;DHT22;5273;51.290;6.918;2023-03-26T20:26:38;6.90;99.90
10451;DHT22;5273;51.290;6.918;2023-03-26T20:41:22;6.60;99.90
10451;DHT22;5273;51.290;6.918;2023-03-26T20:43:51;6.50;99.90
10451;DHT22;5273;51.290;6.918;2023-03-26T20:46:20;6.50;99.90
10451;DHT22;5273;51.290;6.918;2023-03-26T20:53:45;6.50;99.90
10451;DHT22;5273;51.290;6.918;2023-03-26T20:56:14;6.40;99.90
10451;DHT22;5273;51.290;6.918;2023-03-26T20:58:43;6.40;99.90
10451;DHT22;5273;51.290;6.918;2023-03-26T21:01:12;6.40;99.90
10451;DHT22;5273;51.290;6.918;2023-03-26T21:06:11;6.30;99.90
10451;DHT22;5273;51.290;6.918;2023-03-26T21:08:40;6.30;99.90
10451;DHT22;5273;51.290;6.918;2023-03-26T21:11:16;6.30;99.90
10451;DHT22;5273;51.290;6.918;2023-03-26T21:13:46;6.20;99.90
10451;DHT22;5273;51.290;6.918;2023-03-26T21:16:17;6.20;99.90
10451;DHT22;5273;51.290;6.918;2023-03-26T21:21:24;6.20;99.90
10451;DHT22;5273;51.290;6.918;2023-03-26T21:23:55;6.10;99.90
10451;DHT22;5273;51.290;6.918;2023-03-26T21:26:29;6.10;99.90
10451;DHT22;5273;51.290;6.918;2023-03-26T21:31:27;6.00;99.90
10451;DHT22;5273;51.290;6.918;2023-03-26T21:41:30;5.90;99.90
10451;DHT22;5273;51.290;6.918;2023-03-26T21:46:29;6.10;99.90
10451;DHT22;5273;51.290;6.918;2023-03-26T21:51:25;5.80;99.90
10451;DHT22;5273;51.290;6.918;2023-03-26T21:56:32;5.60;99.90
10451;DHT22;5273;51.290;6.918;2023-03-26T21:59:05;5.50;99.70
10451;DHT22;5273;51.290;6.918;2023-03-26T22:01:44;5.40;99.70
10451;DHT22;5273;51.290;6.918;2023-03-26T22:04:16;5.40;99.90
10451;DHT22;5273;51.290;6.918;2023-03-26T22:06:49;5.30;99.90
10451;DHT22;5273;51.290;6.918;2023-03-26T22:16:43;4.90;99.90
10451;DHT22;5273;51.290;6.918;2023-03-26T22:33:56;4.50;99.90
10451;DHT22;5273;51.290;6.918;2023-03-26T22:38:52;4.40;99.90
10451;DHT22;5273;51.290;6.918;2023-03-26T22:51:14;4.30;99.90
10451;DHT22;5273;51.290;6.918;2023-03-26T22:56:09;4.20;99.90
10451;DHT22;5273;51.290;6.918;2023-03-26T23:01:07;4.20;99.90
10451;DHT22;5273;51.290;6.918;2023-03-26T23:06:04;4.00;99.90
10451;DHT22;5273;51.290;6.918;2023-03-26T23:08:33;4.00;99.90
10451;DHT22;5273;51.290;6.918;2023-03-26T23:18:24;3.90;99.90
10451;DHT22;5273;51.290;6.918;2023-03-26T23:20:51;3.90;99.90
10451;DHT22;5273;51.290;6.918;2023-03-26T23:23:20;3.90;99.90
10451;DHT22;5273;51.290;6.918;2023-03-26T23:25:50;3.80;99.90
10451;DHT22;5273;51.290;6.918;2023-03-26T23:30:45;3.80;99.90
10451;DHT22;5273;51.290;6.918;2023-03-26T23:35:46;3.80;99.90
10451;DHT22;5273;51.290;6.918;2023-03-26T23:43:11;3.80;99.90
10451;DHT22;5273;51.290;6.918;2023-03-26T23:53:03;3.70;99.90
